Time;durP1;ratioP1;P1;durP2;ratioP2;P2;SDS_P1;SDS_P2;PMS_P1;PMS_P2;Temp;Humidity;BMP_temperature;BMP_pressure;BME280_temperature;BME280_humidity;BME280_pressure;Samples;Min_cycle;Max_cycle;Signal;HPM_P1;HPM_P2
2023/07/09 00:00:30;;;;;;;14.20;8.68;;;;;;;;;;4981449;28;92818;-80
2023/07/09 00:02:58;;;;;;;13.10;8.80;;;;;;;;;;4989993;28;94805;-80
2023/07/09 00:05:24;;;;;;;13.75;8.43;;;;;;;;;;4990387;28;92447;-80
2023/07/09 00:07:51;;;;;;;16.38;8.93;;;;;;;;;;5000223;28;92867;-80
2023/07/09 00:10:19;;;;;;;12.80;8.75;;;;;;;;;;4990441;28;92552;-80
2023/07/09 00:12:46;;;;;;;15.75;9.27;;;;;;;;;;4989811;28;92799;-80
2023/07/09 00:15:15;;;;;;;13.95;7.95;;;;;;;;;;4985739;28;92664;-79
2023/07/09 00:17:42;;;;;;;12.23;7.75;;;;;;;;;;4987937;28;96129;-79
2023/07/09 00:20:17;;;;;;;13.60;7.97;;;;;;;;;;4995360;28;92444;-79
2023/07/09 00:22:51;;;;;;;13.82;8.00;;;;;;;;;;4995589;28;95767;-79
2023/07/09 00:25:19;;;;;;;13.30;7.75;;;;;;;;;;4988419;28;92427;-79
2023/07/09 00:27:49;;;;;;;14.15;8.05;;;;;;;;;;4989239;28;93090;-79
2023/07/09 00:30:19;;;;;;;13.65;8.43;;;;;;;;;;4987785;28;96190;-79
2023/07/09 00:32:46;;;;;;;13.88;8.07;;;;;;;;;;4989169;28;92514;-79
2023/07/09 00:35:16;;;;;;;12.80;7.85;;;;;;;;;;4988225;28;93207;-79
2023/07/09 00:37:43;;;;;;;12.40;7.40;;;;;;;;;;4998825;28;93201;-79
2023/07/09 00:40:20;;;;;;;12.45;7.70;;;;;;;;;;4985035;28;92442;-79
2023/07/09 00:42:48;;;;;;;12.60;7.60;;;;;;;;;;4978066;28;96172;-79
2023/07/09 00:45:22;;;;;;;13.00;7.57;;;;;;;;;;4989585;28;92490;-79
2023/07/09 00:47:53;;;;;;;15.15;7.85;;;;;;;;;;4989637;28;92984;-79
2023/07/09 00:50:27;;;;;;;17.63;7.75;;;;;;;;;;4987804;28;92771;-79
2023/07/09 00:52:55;;;;;;;14.80;7.75;;;;;;;;;;4999587;28;92698;-79
2023/07/09 00:55:24;;;;;;;14.00;8.27;;;;;;;;;;4982101;28;92751;-80
2023/07/09 00:57:56;;;;;;;11.85;7.40;;;;;;;;;;4982424;28;93128;-79
2023/07/09 01:00:27;;;;;;;13.65;7.85;;;;;;;;;;4988505;28;91857;-80
2023/07/09 01:02:54;;;;;;;13.60;7.75;;;;;;;;;;4990643;28;94726;-79
2023/07/09 01:05:21;;;;;;;13.57;7.72;;;;;;;;;;4989529;28;92760;-78
2023/07/09 01:07:48;;;;;;;14.88;7.32;;;;;;;;;;4992112;28;95943;-79
2023/07/09 01:10:18;;;;;;;13.63;7.43;;;;;;;;;;4990364;28;93380;-79
2023/07/09 01:12:45;;;;;;;17.05;9.02;;;;;;;;;;4988922;28;92536;-79
2023/07/09 01:15:12;;;;;;;12.57;7.55;;;;;;;;;;4989302;28;92797;-79
2023/07/09 01:17:38;;;;;;;13.23;7.55;;;;;;;;;;4989428;28;93561;-78
2023/07/09 01:20:08;;;;;;;13.98;8.38;;;;;;;;;;4989769;28;92417;-79
2023/07/09 01:22:36;;;;;;;13.05;7.95;;;;;;;;;;4989644;28;92765;-79
2023/07/09 01:25:06;;;;;;;13.63;7.65;;;;;;;;;;4977758;28;94187;-78
2023/07/09 01:27:36;;;;;;;15.45;8.73;;;;;;;;;;4996206;28;92837;-79
2023/07/09 01:30:06;;;;;;;15.02;9.00;;;;;;;;;;4994765;28;95749;-80
2023/07/09 01:32:33;;;;;;;11.95;7.45;;;;;;;;;;4990408;28;94781;-79
2023/07/09 01:35:04;;;;;;;13.95;8.43;;;;;;;;;;4993460;28;95951;-79
2023/07/09 01:37:32;;;;;;;13.52;6.97;;;;;;;;;;5001819;28;93052;-80
2023/07/09 01:39:59;;;;;;;12.18;7.57;;;;;;;;;;4990401;28;92495;-80
2023/07/09 01:42:28;;;;;;;12.18;7.75;;;;;;;;;;4992404;28;92881;-80
2023/07/09 01:44:54;;;;;;;13.98;8.38;;;;;;;;;;4991506;28;92984;-80
2023/07/09 01:47:23;;;;;;;13.63;8.38;;;;;;;;;;4993171;28;92837;-80
2023/07/09 01:49:56;;;;;;;13.65;7.90;;;;;;;;;;4990583;28;92857;-80
2023/07/09 01:52:27;;;;;;;15.13;8.15;;;;;;;;;;4987028;28;92455;-80
2023/07/09 01:54:53;;;;;;;11.65;7.63;;;;;;;;;;4987953;28;93283;-80
2023/07/09 01:57:24;;;;;;;13.75;8.60;;;;;;;;;;4990658;28;96129;-80
2023/07/09 01:59:52;;;;;;;13.27;8.60;;;;;;;;;;4991962;28;92497;-80
2023/07/09 02:02:19;;;;;;;13.32;8.45;;;;;;;;;;4991813;28;92948;-79
2023/07/09 02:04:47;;;;;;;12.80;7.20;;;;;;;;;;4989880;28;95406;-80
2023/07/09 02:07:14;;;;;;;13.50;8.60;;;;;;;;;;4979659;28;92421;-79
2023/07/09 02:09:40;;;;;;;13.52;7.13;;;;;;;;;;5003005;28;92927;-79
2023/07/09 02:12:08;;;;;;;13.50;7.82;;;;;;;;;;4990264;28;92547;-79
2023/07/09 02:14:34;;;;;;;;;;;;;;;;;;4990838;28;95875;-79
2023/07/09 02:17:01;;;;;;;13.45;7.72;;;;;;;;;;4992130;28;93732;-79
2023/07/09 02:19:28;;;;;;;12.07;7.60;;;;;;;;;;4973770;28;92700;-79
2023/07/09 02:21:55;;;;;;;13.32;7.35;;;;;;;;;;4990166;28;94939;-79
2023/07/09 02:24:24;;;;;;;12.27;7.45;;;;;;;;;;4990319;28;93674;-79
2023/07/09 02:26:51;;;;;;;13.25;7.22;;;;;;;;;;4990312;28;93310;-79
2023/07/09 02:29:18;;;;;;;15.45;7.60;;;;;;;;;;4975865;28;94173;-79
2023/07/09 02:31:45;;;;;;;12.50;7.20;;;;;;;;;;4994770;28;93117;-79
2023/07/09 02:34:11;;;;;;;12.57;7.38;;;;;;;;;;4989487;28;93101;-79
2023/07/09 02:36:42;;;;;;;12.73;6.95;;;;;;;;;;4991999;28;95682;-78
2023/07/09 02:39:10;;;;;;;11.77;6.72;;;;;;;;;;4997026;28;92143;-79
2023/07/09 02:41:36;;;;;;;13.02;7.50;;;;;;;;;;4992070;28;92426;-79
2023/07/09 02:44:04;;;;;;;12.07;6.50;;;;;;;;;;4988631;28;95907;-78
2023/07/09 02:46:31;;;;;;;12.77;7.43;;;;;;;;;;4987413;28;95313;-78
2023/07/09 02:48:58;;;;;;;12.35;7.78;;;;;;;;;;4988976;28;97891;-79
2023/07/09 02:51:26;;;;;;;12.95;7.80;;;;;;;;;;4990674;28;93095;-79
2023/07/09 02:53:54;;;;;;;11.50;6.93;;;;;;;;;;4991151;28;92489;-79
2023/07/09 02:56:20;;;;;;;12.25;7.78;;;;;;;;;;4989336;28;95870;-78
2023/07/09 02:58:47;;;;;;;12.40;7.18;;;;;;;;;;4990800;28;92539;-79
2023/07/09 03:01:14;;;;;;;12.40;6.97;;;;;;;;;;4989139;28;95956;-79
2023/07/09 03:03:40;;;;;;;13.57;7.28;;;;;;;;;;4990784;28;93496;-79
2023/07/09 03:06:07;;;;;;;13.23;7.63;;;;;;;;;;4991763;28;92630;-79
2023/07/09 03:08:33;;;;;;;12.95;7.85;;;;;;;;;;4995253;28;93905;-80
2023/07/09 03:11:07;;;;;;;16.00;7.30;;;;;;;;;;4987492;28;98064;-79
2023/07/09 03:13:34;;;;;;;15.35;7.05;;;;;;;;;;4993790;28;92447;-79
2023/07/09 03:16:00;;;;;;;12.95;6.57;;;;;;;;;;4990617;28;93157;-79
2023/07/09 03:18:27;;;;;;;;;;;;;;;;;;4980847;28;92500;-78
2023/07/09 03:20:54;;;;;;;10.05;6.85;;;;;;;;;;4993137;28;92423;-79
2023/07/09 03:23:20;;;;;;;11.55;6.80;;;;;;;;;;5000931;28;92866;-79
2023/07/09 03:25:47;;;;;;;12.95;6.78;;;;;;;;;;4993809;28;92415;-78
2023/07/09 03:28:13;;;;;;;12.38;6.78;;;;;;;;;;4991263;28;93765;-78
2023/07/09 03:30:44;;;;;;;11.05;6.50;;;;;;;;;;4991154;28;95621;-78
2023/07/09 03:33:10;;;;;;;11.02;6.72;;;;;;;;;;4990784;28;92420;-79
2023/07/09 03:35:38;;;;;;;13.57;6.80;;;;;;;;;;4992328;28;94812;-79
2023/07/09 03:38:05;;;;;;;11.45;7.03;;;;;;;;;;5001382;28;92378;-79
2023/07/09 03:40:31;;;;;;;;;;;;;;;;;;4979613;28;93118;-79
2023/07/09 03:42:58;;;;;;;10.73;6.95;;;;;;;;;;4988098;28;93107;-80
2023/07/09 03:45:25;;;;;;;10.68;6.70;;;;;;;;;;4989874;28;92494;-80
2023/07/09 03:47:51;;;;;;;14.18;7.65;;;;;;;;;;4990219;28;93075;-80
2023/07/09 03:50:18;;;;;;;11.18;7.07;;;;;;;;;;4990408;28;93280;-80
2023/07/09 03:52:45;;;;;;;11.55;6.82;;;;;;;;;;4999241;28;91857;-80
2023/07/09 03:55:11;;;;;;;11.10;6.65;;;;;;;;;;4990090;28;94877;-80
2023/07/09 03:57:38;;;;;;;9.85;6.25;;;;;;;;;;4992207;28;93605;-80
2023/07/09 04:00:04;;;;;;;11.15;6.82;;;;;;;;;;4988380;28;94983;-79
2023/07/09 04:02:40;;;;;;;10.82;6.50;;;;;;;;;;4987093;28;92814;-78
2023/07/09 04:05:10;;;;;;;11.80;6.50;;;;;;;;;;4989937;28;92891;-78
2023/07/09 04:07:37;;;;;;;10.98;6.75;;;;;;;;;;4994467;28;92920;-78
2023/07/09 04:10:04;;;;;;;11.82;6.97;;;;;;;;;;4993256;28;92937;-79
2023/07/09 04:12:30;;;;;;;;;;;;;;;;;;4990342;28;92627;-78
2023/07/09 04:14:57;;;;;;;10.23;6.38;;;;;;;;;;4990876;28;96770;-78
2023/07/09 04:17:24;;;;;;;13.27;6.68;;;;;;;;;;4989574;28;92418;-79
2023/07/09 04:19:50;;;;;;;12.77;7.15;;;;;;;;;;4992915;28;93026;-79
2023/07/09 04:22:17;;;;;;;11.38;6.43;;;;;;;;;;4987518;28;94132;-78
2023/07/09 04:24:44;;;;;;;11.32;6.55;;;;;;;;;;4998020;28;94856;-78
2023/07/09 04:27:10;;;;;;;10.65;6.22;;;;;;;;;;4978744;28;95069;-79
2023/07/09 04:29:38;;;;;;;13.82;6.38;;;;;;;;;;4987758;28;93004;-78
2023/07/09 04:32:11;;;;;;;12.98;6.47;;;;;;;;;;4989302;28;92833;-78
2023/07/09 04:34:40;;;;;;;13.88;6.95;;;;;;;;;;4989431;28;93343;-78
2023/07/09 04:37:07;;;;;;;10.60;6.80;;;;;;;;;;4988597;28;93727;-79
2023/07/09 04:39:34;;;;;;;11.50;6.95;;;;;;;;;;4996164;28;92541;-79
2023/07/09 04:42:01;;;;;;;10.85;6.25;;;;;;;;;;4991363;28;93058;-79
2023/07/09 04:44:29;;;;;;;11.57;6.53;;;;;;;;;;4987385;28;92539;-79
2023/07/09 04:46:55;;;;;;;10.75;6.72;;;;;;;;;;4989235;28;92798;-80
2023/07/09 04:49:22;;;;;;;12.90;7.40;;;;;;;;;;4987917;28;95727;-80
2023/07/09 04:51:49;;;;;;;;;;;;;;;;;;4991244;28;92924;-79
2023/07/09 04:54:15;;;;;;;13.73;7.50;;;;;;;;;;4997707;28;115776;-79
2023/07/09 04:56:45;;;;;;;11.77;7.22;;;;;;;;;;4990671;28;93711;-80
2023/07/09 04:59:12;;;;;;;12.70;6.85;;;;;;;;;;4993383;28;92518;-80
2023/07/09 05:01:38;;;;;;;11.93;7.00;;;;;;;;;;4999456;28;93051;-80
2023/07/09 05:04:06;;;;;;;12.73;7.50;;;;;;;;;;4996556;28;92808;-80
2023/07/09 05:06:34;;;;;;;12.50;7.05;;;;;;;;;;4998749;28;93059;-80
2023/07/09 05:09:00;;;;;;;10.75;6.93;;;;;;;;;;4996072;28;92530;-80
2023/07/09 05:11:27;;;;;;;10.98;6.47;;;;;;;;;;4990667;28;93088;-79
2023/07/09 05:13:53;;;;;;;13.60;7.30;;;;;;;;;;4995831;28;94936;-79
2023/07/09 05:16:20;;;;;;;11.38;6.30;;;;;;;;;;4998784;28;92735;-80
2023/07/09 05:18:47;;;;;;;10.80;6.63;;;;;;;;;;5000909;28;92851;-80
2023/07/09 05:21:13;;;;;;;10.93;6.32;;;;;;;;;;4997612;28;93006;-81
2023/07/09 05:23:40;;;;;;;11.32;6.32;;;;;;;;;;4993441;28;94390;-80
2023/07/09 05:26:06;;;;;;;11.07;6.22;;;;;;;;;;4995897;28;96167;-80
2023/07/09 05:28:33;;;;;;;10.75;6.63;;;;;;;;;;4994316;28;93070;-80
2023/07/09 05:30:59;;;;;;;9.38;5.97;;;;;;;;;;4994864;28;91653;-80
2023/07/09 05:33:26;;;;;;;11.32;7.15;;;;;;;;;;4991408;28;92459;-80
2023/07/09 05:35:53;;;;;;;12.43;6.65;;;;;;;;;;4990188;28;93395;-81
2023/07/09 05:38:20;;;;;;;13.02;7.28;;;;;;;;;;4993069;28;95258;-81
2023/07/09 05:40:46;;;;;;;12.77;6.85;;;;;;;;;;4978723;28;95293;-78
2023/07/09 05:43:13;;;;;;;11.18;6.45;;;;;;;;;;4991669;28;92933;-81
2023/07/09 05:45:39;;;;;;;10.93;6.75;;;;;;;;;;4992447;28;92565;-81
2023/07/09 05:48:06;;;;;;;13.90;8.10;;;;;;;;;;4986545;28;94893;-81
2023/07/09 05:50:34;;;;;;;13.00;7.10;;;;;;;;;;4988312;28;92604;-79
2023/07/09 05:53:01;;;;;;;12.95;9.07;;;;;;;;;;4987609;28;94447;-81
2023/07/09 05:55:27;;;;;;;15.75;11.10;;;;;;;;;;4995275;28;92743;-81
2023/07/09 05:57:54;;;;;;;17.05;10.70;;;;;;;;;;4987480;28;92557;-81
2023/07/09 06:00:20;;;;;;;16.65;10.73;;;;;;;;;;4985583;28;94021;-81
2023/07/09 06:02:47;;;;;;;16.35;8.98;;;;;;;;;;4985837;28;95667;-79
2023/07/09 06:05:14;;;;;;;15.50;8.95;;;;;;;;;;4970122;28;93201;-79
2023/07/09 06:07:41;;;;;;;20.38;13.18;;;;;;;;;;4989350;28;93258;-79
2023/07/09 06:10:08;;;;;;;14.00;8.60;;;;;;;;;;4987288;28;92641;-79
2023/07/09 06:12:35;;;;;;;19.83;10.80;;;;;;;;;;4987931;28;93288;-79
2023/07/09 06:15:02;;;;;;;15.52;10.02;;;;;;;;;;4987161;28;93143;-79
2023/07/09 06:17:28;;;;;;;;;;;;;;;;;;4985805;28;92526;-79
2023/07/09 06:19:55;;;;;;;21.45;14.10;;;;;;;;;;4988831;28;92416;-79
2023/07/09 06:22:25;;;;;;;17.65;10.60;;;;;;;;;;4989316;28;94296;-79
2023/07/09 06:24:51;;;;;;;16.15;10.27;;;;;;;;;;5000856;28;92906;-79
2023/07/09 06:27:18;;;;;;;19.35;12.02;;;;;;;;;;4989038;28;95142;-80
2023/07/09 06:29:44;;;;;;;16.98;11.52;;;;;;;;;;4993185;28;93100;-79
2023/07/09 06:32:11;;;;;;;16.38;10.38;;;;;;;;;;4991623;28;93298;-80
2023/07/09 06:34:37;;;;;;;16.67;10.25;;;;;;;;;;4989942;28;93940;-79
2023/07/09 06:37:04;;;;;;;20.20;9.50;;;;;;;;;;4991332;28;92785;-80
2023/07/09 06:39:31;;;;;;;18.73;11.73;;;;;;;;;;5000756;28;93953;-80
2023/07/09 06:41:58;;;;;;;20.05;10.68;;;;;;;;;;4980303;28;93051;-80
2023/07/09 06:44:34;;;;;;;17.17;11.63;;;;;;;;;;4988955;28;92253;-79
2023/07/09 06:47:00;;;;;;;17.30;10.88;;;;;;;;;;4992007;28;93329;-80
2023/07/09 06:49:27;;;;;;;16.20;10.05;;;;;;;;;;4990955;28;93220;-80
2023/07/09 06:51:54;;;;;;;17.63;11.27;;;;;;;;;;4991939;28;95391;-81
2023/07/09 06:54:21;;;;;;;20.08;12.43;;;;;;;;;;4997713;28;93343;-81
2023/07/09 06:56:48;;;;;;;21.40;13.43;;;;;;;;;;4982045;28;92673;-81
2023/07/09 06:59:14;;;;;;;17.92;10.80;;;;;;;;;;4984511;28;92814;-82
2023/07/09 07:01:41;;;;;;;21.42;14.48;;;;;;;;;;4990127;28;93800;-83
2023/07/09 07:04:08;;;;;;;22.73;15.43;;;;;;;;;;4984840;28;92942;-82
2023/07/09 07:06:34;;;;;;;19.98;12.52;;;;;;;;;;4979904;28;92881;-81
2023/07/09 07:09:01;;;;;;;22.80;15.07;;;;;;;;;;4994425;28;92587;-81
2023/07/09 07:11:29;;;;;;;22.98;14.07;;;;;;;;;;4979659;28;92444;-80
2023/07/09 07:13:57;;;;;;;21.60;12.40;;;;;;;;;;4976164;28;93356;-80
2023/07/09 07:16:24;;;;;;;21.85;13.77;;;;;;;;;;4968291;28;96670;-81
2023/07/09 07:18:51;;;;;;;21.27;14.13;;;;;;;;;;4975425;28;95501;-80
2023/07/09 07:21:18;;;;;;;23.27;13.90;;;;;;;;;;4969013;28;92545;-81
2023/07/09 07:23:44;;;;;;;23.33;15.25;;;;;;;;;;4971387;28;92424;-82
2023/07/09 07:26:11;;;;;;;20.63;14.10;;;;;;;;;;4978463;28;93313;-81
2023/07/09 07:28:38;;;;;;;18.85;12.20;;;;;;;;;;4994697;28;92579;-80
2023/07/09 07:31:07;;;;;;;16.13;10.90;;;;;;;;;;4977328;28;92815;-80
2023/07/09 07:33:34;;;;;;;16.00;10.38;;;;;;;;;;4978010;28;92318;-79
2023/07/09 07:36:03;;;;;;;15.13;10.25;;;;;;;;;;4983064;28;92524;-79
2023/07/09 07:38:49;;;;;;;14.75;9.55;;;;;;;;;;4977011;28;95460;-79
2023/07/09 07:41:16;;;;;;;14.82;9.07;;;;;;;;;;4976230;28;95628;-81
2023/07/09 07:43:42;;;;;;;14.05;9.00;;;;;;;;;;4969358;28;92554;-80
2023/07/09 07:46:09;;;;;;;14.32;8.57;;;;;;;;;;4975162;28;93051;-79
2023/07/09 07:48:35;;;;;;;13.75;8.48;;;;;;;;;;4968458;28;93221;-79
2023/07/09 07:51:03;;;;;;;14.00;8.65;;;;;;;;;;4983310;28;92935;-80
2023/07/09 07:53:30;;;;;;;12.27;8.15;;;;;;;;;;4983222;28;92702;-80
2023/07/09 07:55:57;;;;;;;13.88;7.50;;;;;;;;;;4981733;28;93134;-80
2023/07/09 07:58:24;;;;;;;12.88;8.18;;;;;;;;;;4989729;28;92990;-80
2023/07/09 08:00:54;;;;;;;12.23;7.75;;;;;;;;;;4987988;28;93255;-79
2023/07/09 08:03:20;;;;;;;11.30;7.50;;;;;;;;;;4989978;28;92437;-79
2023/07/09 08:05:50;;;;;;;12.20;7.55;;;;;;;;;;4987307;28;95503;-78
2023/07/09 08:08:18;;;;;;;12.55;6.90;;;;;;;;;;4989764;28;93062;-80
2023/07/09 08:10:44;;;;;;;11.18;7.00;;;;;;;;;;4975861;28;92466;-78
2023/07/09 08:13:11;;;;;;;10.57;6.55;;;;;;;;;;4987731;28;92906;-78
2023/07/09 08:15:38;;;;;;;11.05;7.10;;;;;;;;;;4989517;28;93097;-85
2023/07/09 08:18:04;;;;;;;14.70;7.05;;;;;;;;;;4993399;28;92394;-78
2023/07/09 08:20:33;;;;;;;13.40;7.40;;;;;;;;;;4989686;28;93966;-79
2023/07/09 08:22:59;;;;;;;12.70;6.85;;;;;;;;;;4994357;28;91750;-79
2023/07/09 08:25:26;;;;;;;12.50;7.78;;;;;;;;;;4994865;28;92873;-80
2023/07/09 08:27:52;;;;;;;11.20;6.70;;;;;;;;;;4987857;28;95389;-80
2023/07/09 08:30:19;;;;;;;14.40;6.93;;;;;;;;;;4973138;28;95215;-80
2023/07/09 08:32:45;;;;;;;13.40;7.40;;;;;;;;;;4978279;28;95151;-81
2023/07/09 08:35:12;;;;;;;13.45;6.90;;;;;;;;;;4990019;28;93173;-80
2023/07/09 08:37:58;;;;;;;11.80;7.22;;;;;;;;;;4981361;28;92369;-80
2023/07/09 08:40:25;;;;;;;11.40;7.03;;;;;;;;;;4984868;28;92695;-79
2023/07/09 08:42:56;;;;;;;12.80;6.93;;;;;;;;;;4989105;28;92449;-79
2023/07/09 08:45:34;;;;;;;11.80;6.65;;;;;;;;;;4971692;28;92856;-79
2023/07/09 08:48:12;;;;;;;13.32;7.05;;;;;;;;;;4973677;28;92380;-79
2023/07/09 08:50:41;;;;;;;12.75;6.57;;;;;;;;;;4980224;28;92800;-79
2023/07/09 08:53:14;;;;;;;11.88;6.70;;;;;;;;;;4992659;28;92860;-79
2023/07/09 08:55:41;;;;;;;11.55;6.85;;;;;;;;;;4988073;28;95319;-79
2023/07/09 08:58:14;;;;;;;10.75;6.50;;;;;;;;;;4990179;28;92566;-78
2023/07/09 09:00:41;;;;;;;;;;;;;;;;;;4989905;28;93952;-78
2023/07/09 09:03:14;;;;;;;11.40;6.22;;;;;;;;;;4993425;28;100783;-79
2023/07/09 09:05:41;;;;;;;;;;;;;;;;;;4987059;28;96051;-79
2023/07/09 09:08:10;;;;;;;10.98;6.53;;;;;;;;;;4987046;28;105240;-79
2023/07/09 09:10:43;;;;;;;11.77;6.35;;;;;;;;;;4986335;28;92875;-79
2023/07/09 09:13:12;;;;;;;11.85;6.35;;;;;;;;;;4989142;28;93085;-79
2023/07/09 09:15:40;;;;;;;9.85;5.47;;;;;;;;;;4986888;28;95307;-79
2023/07/09 09:18:26;;;;;;;10.30;5.88;;;;;;;;;;4987923;28;92735;-79
2023/07/09 09:20:57;;;;;;;11.27;5.85;;;;;;;;;;4987697;28;95193;-79
2023/07/09 09:23:28;;;;;;;10.90;6.28;;;;;;;;;;4991863;28;95435;-79
2023/07/09 09:25:56;;;;;;;10.93;6.03;;;;;;;;;;5002851;28;92841;-79
2023/07/09 09:28:38;;;;;;;9.98;5.75;;;;;;;;;;4990565;28;93260;-79
2023/07/09 09:31:07;;;;;;;10.18;5.80;;;;;;;;;;4989794;28;92832;-79
2023/07/09 09:33:51;;;;;;;10.43;5.93;;;;;;;;;;4989785;28;92861;-79
2023/07/09 09:36:25;;;;;;;11.23;6.13;;;;;;;;;;4973060;28;93124;-79
2023/07/09 09:38:52;;;;;;;11.10;6.07;;;;;;;;;;4983483;28;92167;-79
2023/07/09 09:41:19;;;;;;;10.85;5.95;;;;;;;;;;4998534;28;93418;-79
2023/07/09 09:43:46;;;;;;;10.38;6.00;;;;;;;;;;4988340;28;94396;-78
2023/07/09 09:46:20;;;;;;;9.13;5.35;;;;;;;;;;4990333;28;94842;-78
2023/07/09 09:48:48;;;;;;;9.85;5.63;;;;;;;;;;4989238;28;94024;-81
2023/07/09 09:51:16;;;;;;;11.07;5.90;;;;;;;;;;4988511;28;92737;-81
2023/07/09 09:53:46;;;;;;;9.38;5.72;;;;;;;;;;4988853;28;93223;-78
2023/07/09 09:56:18;;;;;;;9.80;5.75;;;;;;;;;;5002412;28;93553;-79
2023/07/09 09:58:44;;;;;;;9.80;5.63;;;;;;;;;;4990506;28;92653;-78
2023/07/09 10:01:14;;;;;;;10.18;6.18;;;;;;;;;;4991957;28;92815;-80
2023/07/09 10:03:40;;;;;;;8.98;5.50;;;;;;;;;;4992076;28;92361;-79
2023/07/09 10:06:27;;;;;;;9.25;5.50;;;;;;;;;;4991537;28;93140;-80
2023/07/09 10:08:59;;;;;;;9.38;5.45;;;;;;;;;;4980790;28;93530;-79
2023/07/09 10:11:26;;;;;;;11.10;6.10;;;;;;;;;;4990289;28;94900;-79
2023/07/09 10:13:54;;;;;;;8.88;5.20;;;;;;;;;;4991901;28;95437;-79
2023/07/09 10:16:35;;;;;;;9.45;5.10;;;;;;;;;;4991851;28;92997;-79
2023/07/09 10:19:24;;;;;;;8.75;5.22;;;;;;;;;;4987798;28;92454;-79
2023/07/09 10:21:57;;;;;;;9.18;4.78;;;;;;;;;;4992119;28;93828;-79
2023/07/09 10:24:51;;;;;;;9.27;4.95;;;;;;;;;;4981303;28;93261;-79
2023/07/09 10:27:22;;;;;;;8.63;5.28;;;;;;;;;;4994079;28;92452;-79
2023/07/09 10:30:07;;;;;;;8.50;4.93;;;;;;;;;;4983323;28;92160;-79
2023/07/09 10:32:53;;;;;;;9.52;5.00;;;;;;;;;;4993880;28;92673;-79
2023/07/09 10:35:38;;;;;;;7.60;4.40;;;;;;;;;;4991550;28;93275;-79
2023/07/09 10:38:05;;;;;;;;;;;;;;;;;;4977169;28;95521;-79
2023/07/09 10:40:39;;;;;;;8.45;4.47;;;;;;;;;;5000883;28;92810;-79
2023/07/09 10:43:10;;;;;;;8.85;4.85;;;;;;;;;;4978268;28;92935;-79
2023/07/09 10:45:37;;;;;;;8.82;4.68;;;;;;;;;;4990715;28;93146;-79
2023/07/09 10:48:10;;;;;;;8.93;4.78;;;;;;;;;;4990877;28;92450;-78
2023/07/09 10:50:39;;;;;;;8.75;4.63;;;;;;;;;;4991294;28;92979;-78
2023/07/09 10:53:12;;;;;;;7.95;4.47;;;;;;;;;;4989485;28;94082;-79
2023/07/09 10:55:43;;;;;;;8.27;4.38;;;;;;;;;;5002519;28;91760;-78
2023/07/09 10:58:28;;;;;;;7.88;4.68;;;;;;;;;;4992898;28;93666;-79
2023/07/09 11:00:54;;;;;;;8.40;4.43;;;;;;;;;;4989508;28;92419;-78
2023/07/09 11:03:32;;;;;;;7.50;4.30;;;;;;;;;;4989475;28;94866;-78
2023/07/09 11:05:59;;;;;;;8.02;4.40;;;;;;;;;;4990495;28;93058;-79
2023/07/09 11:08:37;;;;;;;7.90;4.43;;;;;;;;;;4989037;28;92544;-79
2023/07/09 11:11:07;;;;;;;7.95;4.22;;;;;;;;;;4990826;28;92793;-78
2023/07/09 11:13:37;;;;;;;7.75;4.38;;;;;;;;;;4990923;28;93063;-79
2023/07/09 11:16:25;;;;;;;8.40;4.40;;;;;;;;;;4990754;28;92953;-78
2023/07/09 11:18:56;;;;;;;8.23;4.38;;;;;;;;;;4993437;28;93078;-78
2023/07/09 11:21:22;;;;;;;8.13;4.32;;;;;;;;;;4991487;28;92254;-81
2023/07/09 11:23:56;;;;;;;7.95;4.55;;;;;;;;;;4991931;28;92480;-78
2023/07/09 11:26:27;;;;;;;8.95;4.68;;;;;;;;;;5008404;28;95242;-78
2023/07/09 11:28:55;;;;;;;7.55;4.32;;;;;;;;;;5003807;28;94840;-78
2023/07/09 11:31:34;;;;;;;7.70;4.00;;;;;;;;;;4995870;28;94503;-78
2023/07/09 11:34:02;;;;;;;7.57;4.20;;;;;;;;;;4994063;28;94337;-79
2023/07/09 11:36:30;;;;;;;7.80;4.22;;;;;;;;;;4979200;28;92453;-79
2023/07/09 11:38:57;;;;;;;7.75;4.20;;;;;;;;;;4992851;28;94061;-79
2023/07/09 11:41:46;;;;;;;7.82;4.28;;;;;;;;;;5000812;28;93248;-79
2023/07/09 11:44:15;;;;;;;7.50;3.90;;;;;;;;;;4980981;28;93981;-80
2023/07/09 11:46:48;;;;;;;7.90;4.18;;;;;;;;;;4990151;28;94961;-80
2023/07/09 11:49:15;;;;;;;7.18;4.00;;;;;;;;;;4991537;28;92790;-80
2023/07/09 11:51:41;;;;;;;;;;;;;;;;;;4991915;28;92538;-79
2023/07/09 11:54:11;;;;;;;7.53;3.90;;;;;;;;;;4990686;28;95825;-79
2023/07/09 11:56:37;;;;;;;6.97;4.10;;;;;;;;;;5000624;28;92518;-79
2023/07/09 11:59:04;;;;;;;7.43;4.20;;;;;;;;;;4990562;28;93104;-80
2023/07/09 12:01:36;;;;;;;7.68;3.80;;;;;;;;;;4993550;28;93191;-80
2023/07/09 12:04:04;;;;;;;7.35;3.90;;;;;;;;;;4990997;28;93465;-79
2023/07/09 12:06:32;;;;;;;7.80;3.88;;;;;;;;;;4990089;28;93021;-80
2023/07/09 12:08:59;;;;;;;7.18;4.07;;;;;;;;;;4990223;28;92441;-79
2023/07/09 12:11:25;;;;;;;;;;;;;;;;;;4984121;28;92879;-80
2023/07/09 12:13:52;;;;;;;7.38;4.07;;;;;;;;;;4987478;28;110373;-80
2023/07/09 12:16:22;;;;;;;8.30;4.35;;;;;;;;;;4990369;28;92812;-79
2023/07/09 12:18:48;;;;;;;7.40;4.40;;;;;;;;;;4987344;28;94819;-80
2023/07/09 12:21:15;;;;;;;7.82;4.22;;;;;;;;;;4990159;28;92790;-80
2023/07/09 12:23:42;;;;;;;7.85;4.10;;;;;;;;;;4993078;28;92498;-80
2023/07/09 12:26:13;;;;;;;8.63;4.68;;;;;;;;;;4993830;28;92964;-79
2023/07/09 12:28:39;;;;;;;8.00;4.50;;;;;;;;;;4990450;28;92421;-80
2023/07/09 12:31:12;;;;;;;8.05;4.68;;;;;;;;;;4988100;28;94240;-79
2023/07/09 12:33:46;;;;;;;8.13;4.97;;;;;;;;;;4989876;28;93073;-80
2023/07/09 12:36:12;;;;;;;8.55;4.85;;;;;;;;;;4988859;28;92358;-80
2023/07/09 12:38:43;;;;;;;7.93;4.60;;;;;;;;;;4989804;28;92814;-80
2023/07/09 12:41:27;;;;;;;7.97;4.43;;;;;;;;;;4996863;28;93577;-80
2023/07/09 12:43:55;;;;;;;8.88;4.97;;;;;;;;;;4988162;28;94816;-80
2023/07/09 12:46:22;;;;;;;8.77;4.82;;;;;;;;;;4992126;28;95686;-80
2023/07/09 12:48:52;;;;;;;8.27;4.53;;;;;;;;;;4989535;28;92675;-80
2023/07/09 12:51:24;;;;;;;8.13;5.03;;;;;;;;;;4975394;28;92939;-80
2023/07/09 12:54:21;;;;;;;7.70;4.75;;;;;;;;;;4980310;28;93232;-79
2023/07/09 12:56:51;;;;;;;9.57;5.00;;;;;;;;;;4996145;28;92471;-79
2023/07/09 12:59:37;;;;;;;8.73;5.03;;;;;;;;;;4989951;28;92949;-80
2023/07/09 13:02:25;;;;;;;8.85;5.30;;;;;;;;;;4987721;28;95009;-80
2023/07/09 13:04:59;;;;;;;7.85;4.63;;;;;;;;;;4971171;28;92462;-78
2023/07/09 13:07:29;;;;;;;8.88;5.15;;;;;;;;;;4957872;28;95288;-79
2023/07/09 13:09:57;;;;;;;9.85;5.18;;;;;;;;;;4987605;28;95299;-78
2023/07/09 13:12:31;;;;;;;9.80;5.40;;;;;;;;;;4982219;28;95213;-78
2023/07/09 13:14:57;;;;;;;10.10;5.53;;;;;;;;;;4980479;28;93739;-78
2023/07/09 13:17:30;;;;;;;9.70;5.70;;;;;;;;;;4988412;28;92778;-78
2023/07/09 13:19:57;;;;;;;9.32;5.75;;;;;;;;;;4987552;28;94580;-78
2023/07/09 13:22:24;;;;;;;9.25;5.78;;;;;;;;;;4988409;28;93486;-78
2023/07/09 13:24:51;;;;;;;11.18;5.90;;;;;;;;;;4990069;28;92478;-79
2023/07/09 13:27:18;;;;;;;10.40;6.03;;;;;;;;;;4991207;28;93139;-79
2023/07/09 13:29:46;;;;;;;8.63;5.18;;;;;;;;;;4994749;28;95206;-79
2023/07/09 13:32:14;;;;;;;12.02;5.65;;;;;;;;;;4997736;28;92443;-79
2023/07/09 13:34:40;;;;;;;8.63;5.10;;;;;;;;;;4988721;28;95186;-79
2023/07/09 13:37:14;;;;;;;9.20;5.78;;;;;;;;;;4992864;28;92746;-79
2023/07/09 13:39:41;;;;;;;10.77;5.78;;;;;;;;;;4994757;28;94126;-79
2023/07/09 13:42:11;;;;;;;10.35;5.60;;;;;;;;;;4985329;28;92975;-79
2023/07/09 13:44:39;;;;;;;12.77;6.00;;;;;;;;;;4976163;28;93188;-79
2023/07/09 13:47:09;;;;;;;10.32;6.05;;;;;;;;;;4991295;28;92771;-79
2023/07/09 13:49:36;;;;;;;10.25;6.43;;;;;;;;;;4988804;28;92889;-78
2023/07/09 13:52:02;;;;;;;12.57;6.88;;;;;;;;;;4979104;28;92375;-78
2023/07/09 13:54:35;;;;;;;11.88;6.40;;;;;;;;;;4973624;28;93230;-78
2023/07/09 13:57:02;;;;;;;11.57;6.75;;;;;;;;;;4989197;28;92742;-78
2023/07/09 13:59:29;;;;;;;13.63;6.68;;;;;;;;;;4970957;28;95124;-80
2023/07/09 14:01:57;;;;;;;11.18;6.22;;;;;;;;;;4985022;28;93276;-78
2023/07/09 14:04:25;;;;;;;11.15;6.18;;;;;;;;;;4984743;28;92609;-78
2023/07/09 14:06:52;;;;;;;9.57;5.85;;;;;;;;;;4986291;28;93533;-78
2023/07/09 14:09:18;;;;;;;11.25;5.38;;;;;;;;;;4987166;28;92534;-78
2023/07/09 14:11:48;;;;;;;11.82;4.35;;;;;;;;;;4987151;28;93477;-79
2023/07/09 14:14:23;;;;;;;10.13;4.05;;;;;;;;;;4987666;28;93481;-79
2023/07/09 14:16:50;;;;;;;10.60;4.10;;;;;;;;;;4984860;28;92075;-79
2023/07/09 14:19:21;;;;;;;8.57;3.80;;;;;;;;;;4995738;28;93294;-78
2023/07/09 14:21:55;;;;;;;9.13;3.95;;;;;;;;;;4991674;28;93529;-79
2023/07/09 14:24:23;;;;;;;8.30;3.88;;;;;;;;;;4987296;28;95412;-79
2023/07/09 14:26:55;;;;;;;9.73;3.90;;;;;;;;;;4996703;28;98045;-76
2023/07/09 14:29:26;;;;;;;8.82;4.07;;;;;;;;;;4987299;28;93678;-77
2023/07/09 14:31:52;;;;;;;9.60;3.90;;;;;;;;;;4991608;28;92811;-78
2023/07/09 14:34:29;;;;;;;9.80;4.05;;;;;;;;;;4984838;28;92963;-77
2023/07/09 14:36:57;;;;;;;9.43;4.07;;;;;;;;;;4992492;28;95805;-77
2023/07/09 14:39:25;;;;;;;9.52;3.70;;;;;;;;;;4985760;28;93034;-78
2023/07/09 14:41:52;;;;;;;10.85;3.85;;;;;;;;;;4987759;28;92537;-77
2023/07/09 14:44:26;;;;;;;10.70;3.60;;;;;;;;;;4986657;28;92604;-78
2023/07/09 14:46:53;;;;;;;11.00;4.30;;;;;;;;;;4993331;28;93103;-80